< < Back
Terminal Aerodrome Forecast


Current Version              Previous Versions:   1  2  3  4  5  6  7  8  9  

Terminal Aerodrome Forecast

221
FTUS42 KFFC 271000 AAB
TAFFTY
TAF AMD
KFTY 271000Z 2710/2806 28005KT P6SM BKN045
     FM271500 31010G15KT P6SM BKN050
     FM271800 32012G22KT P6SM SCT050
     FM280100 32007KT P6SM SCT250=



Latest METAR

241
SAUS70 KWBC 271000 RRC
MTRFTY
METAR KFTY 270953Z 00000KT 10SM OVC050 01/M03 A2987 RMK AO2 SLP117
T00111028


USA.gov is the U.S. government's official web portal to all federal, state and local government web resources and services.